createdAt,value
2017-11-25T10:58:07.344Z,4.70
2017-11-25T11:00:35.599Z,4.60
2017-11-25T11:03:03.065Z,6.00
2017-11-25T11:05:31.335Z,4.90
2017-11-25T11:07:59.595Z,5.43
2017-11-25T11:10:27.066Z,4.27
2017-11-25T11:12:54.552Z,5.73
2017-11-25T11:15:22.785Z,4.17
2017-11-25T11:17:50.269Z,5.13
2017-11-25T11:20:18.508Z,4.47
2017-11-25T11:22:46.000Z,4.93
2017-11-25T11:25:14.361Z,4.60
2017-11-25T11:27:41.853Z,5.37
2017-11-25T11:30:10.096Z,5.63
2017-11-25T11:32:37.573Z,4.67
2017-11-25T11:35:05.127Z,4.40
2017-11-25T11:37:33.417Z,5.53
2017-11-25T11:40:01.672Z,4.10
2017-11-25T11:42:29.176Z,5.50
2017-11-25T11:44:56.769Z,4.50
2017-11-25T11:47:24.319Z,5.30
2017-11-25T11:49:52.201Z,4.80
2017-11-25T11:52:19.699Z,5.10
2017-11-25T11:54:47.932Z,4.50
2017-11-25T11:57:15.458Z,4.20
2017-11-25T11:59:42.988Z,4.33
2017-11-25T12:02:11.236Z,5.10
2017-11-25T12:04:38.726Z,4.87
2017-11-25T12:07:06.985Z,5.10
2017-11-25T12:09:34.509Z,5.10
2017-11-25T12:12:01.990Z,6.00
2017-11-25T12:14:29.471Z,6.17
2017-11-25T12:16:56.940Z,6.57
2017-11-25T12:19:25.168Z,6.40
2017-11-25T12:21:52.652Z,6.67
2017-11-25T12:24:21.627Z,6.60
2017-11-25T12:26:49.122Z,6.60
2017-11-25T12:29:17.391Z,7.50
2017-11-25T12:31:45.692Z,6.70
2017-11-25T12:34:13.173Z,6.40
2017-11-25T12:36:40.672Z,7.33
2017-11-25T12:39:08.161Z,9.43
2017-11-25T12:41:36.393Z,9.07
2017-11-25T12:44:03.884Z,9.00
2017-11-25T12:46:32.124Z,9.40
2017-11-25T12:48:59.609Z,8.73
2017-11-25T12:51:27.085Z,8.37
2017-11-25T12:53:55.336Z,8.50
2017-11-25T12:56:24.324Z,8.07
2017-11-25T12:58:51.801Z,7.33
2017-11-25T13:01:20.117Z,7.90
2017-11-25T13:03:47.593Z,8.27
2017-11-25T13:06:15.086Z,8.40
2017-11-25T13:08:42.551Z,7.67
2017-11-25T13:11:10.868Z,8.40
2017-11-25T13:13:38.358Z,8.43
2017-11-25T13:16:05.841Z,8.77
2017-11-25T13:18:33.323Z,8.83
2017-11-25T13:21:01.556Z,6.60
2017-11-25T13:23:29.156Z,12.13
2017-11-25T13:25:57.444Z,8.93
2017-11-25T13:28:25.081Z,11.30
2017-11-25T13:30:52.582Z,10.67
2017-11-25T13:33:20.061Z,7.33
2017-11-25T13:35:47.559Z,8.13
2017-11-25T13:38:15.817Z,8.43
2017-11-25T13:40:43.341Z,9.67
2017-11-25T13:43:10.825Z,8.00
2017-11-25T13:45:38.308Z,9.63
2017-11-25T13:48:06.568Z,8.93
2017-11-25T13:50:34.806Z,8.63
2017-11-25T13:53:02.300Z,13.37
2017-11-25T13:55:29.776Z,9.50
2017-11-25T13:57:57.282Z,8.07
2017-11-25T14:00:25.639Z,7.80
2017-11-25T14:02:53.956Z,9.83
2017-11-25T14:05:21.482Z,8.30
2017-11-25T14:07:49.009Z,9.13
2017-11-25T14:10:16.535Z,9.00
2017-11-25T14:12:44.062Z,8.63
2017-11-25T14:15:12.467Z,8.40
2017-11-25T14:17:39.961Z,9.90
2017-11-25T14:20:07.472Z,11.60
2017-11-25T14:22:34.977Z,11.30
2017-11-25T14:25:02.566Z,11.10
2017-11-25T14:27:30.847Z,11.77
2017-11-25T14:29:59.128Z,11.17
2017-11-25T14:32:27.395Z,11.10
2017-11-25T14:34:55.665Z,12.43
2017-11-25T14:37:23.186Z,13.27
2017-11-25T14:39:50.796Z,11.17
2017-11-25T14:42:19.068Z,12.00
2017-11-25T14:44:47.335Z,11.23
2017-11-25T14:47:14.808Z,12.50
2017-11-25T14:49:43.083Z,11.23
2017-11-25T14:52:11.341Z,12.03
2017-11-25T14:54:38.872Z,10.50
2017-11-25T14:57:06.406Z,14.87
2017-11-25T14:59:33.908Z,21.23
2017-11-25T15:02:01.425Z,11.43
2017-11-25T15:04:28.947Z,12.23
2017-11-25T15:06:57.221Z,11.93
2017-11-25T15:09:24.718Z,11.70
2017-11-25T15:11:52.244Z,12.37
2017-11-25T15:14:20.580Z,22.20
2017-11-25T15:16:48.105Z,14.70
2017-11-25T15:19:15.606Z,14.50
2017-11-25T15:21:43.093Z,13.60
2017-11-25T15:24:10.567Z,13.27
2017-11-25T15:26:38.820Z,13.30
2017-11-25T15:29:06.352Z,14.27
2017-11-25T15:31:33.877Z,13.07
2017-11-25T15:34:01.365Z,16.57
2017-11-25T15:36:28.842Z,21.10
2017-11-25T15:38:56.329Z,20.73
2017-11-25T15:41:24.564Z,14.70
2017-11-25T15:43:52.052Z,15.87
2017-11-25T15:46:19.545Z,16.97
2017-11-25T15:48:47.069Z,28.70
2017-11-25T15:51:14.552Z,18.90
2017-11-25T15:53:42.788Z,19.53
2017-11-25T15:56:10.287Z,19.90
2017-11-25T15:58:38.535Z,22.47
2017-11-25T16:01:06.805Z,18.70
2017-11-25T16:03:34.280Z,16.07
2017-11-25T16:06:02.536Z,17.20
2017-11-25T16:08:30.010Z,16.20
2017-11-25T16:10:57.522Z,15.80
2017-11-25T16:13:25.075Z,17.00
2017-11-25T16:15:52.576Z,15.90
2017-11-25T16:18:21.622Z,27.90
2017-11-25T16:20:49.182Z,16.87
2017-11-25T16:23:16.680Z,17.10
2017-11-25T16:25:44.159Z,15.93
2017-11-25T16:28:11.645Z,23.00
2017-11-25T16:30:39.132Z,18.00
2017-11-25T16:33:06.611Z,15.20
2017-11-25T16:35:34.103Z,15.93
2017-11-25T16:38:02.341Z,16.67
2017-11-25T16:40:29.832Z,16.30
2017-11-25T16:42:58.080Z,16.97
2017-11-25T16:45:25.549Z,15.70
2017-11-25T16:47:53.041Z,15.90
2017-11-25T16:50:21.278Z,16.27
2017-11-25T16:52:48.777Z,14.63
2017-11-25T16:55:16.360Z,7.70
2017-11-25T16:57:43.848Z,11.77
2017-11-25T17:00:11.324Z,7.17
2017-11-25T17:02:38.897Z,8.77
2017-11-25T17:05:07.156Z,9.13
2017-11-25T17:07:34.632Z,10.40
2017-11-25T17:10:02.121Z,9.90
2017-11-25T17:12:29.593Z,9.47
2017-11-25T17:14:57.087Z,9.80
2017-11-25T17:17:24.569Z,8.83
2017-11-25T17:19:52.801Z,6.77
2017-11-25T17:22:20.341Z,5.07
2017-11-25T17:24:47.807Z,5.70
2017-11-25T17:27:15.292Z,5.30
2017-11-25T17:29:42.776Z,4.57
2017-11-25T17:32:11.039Z,6.60
2017-11-25T17:34:38.514Z,5.20
2017-11-25T17:37:06.757Z,4.53
2017-11-25T17:39:34.244Z,5.30
2017-11-25T17:42:02.484Z,4.73
2017-11-25T17:44:29.970Z,4.93
2017-11-25T17:46:57.436Z,6.70
2017-11-25T17:49:25.685Z,6.27
2017-11-25T17:51:53.176Z,6.13
2017-11-25T17:54:21.433Z,5.90
2017-11-25T17:56:48.965Z,6.20
2017-11-25T17:59:16.437Z,5.00
2017-11-25T18:01:43.921Z,5.63
2017-11-25T18:04:12.153Z,4.90
2017-11-25T18:06:39.658Z,6.60
2017-11-25T18:09:07.928Z,5.23
2017-11-25T18:11:36.201Z,5.43
2017-11-25T18:14:04.444Z,6.30
2017-11-25T18:16:31.915Z,6.33
2017-11-25T18:18:59.393Z,5.80
2017-11-25T18:21:27.643Z,5.63
2017-11-25T18:23:55.134Z,6.43
2017-11-25T18:26:23.390Z,5.60
2017-11-25T18:28:50.883Z,6.17
2017-11-25T18:31:19.117Z,6.50
2017-11-25T18:33:46.597Z,6.10
2017-11-25T18:36:14.081Z,7.57
2017-11-25T18:38:42.315Z,7.37
2017-11-25T18:41:09.804Z,6.77
2017-11-25T18:43:38.048Z,6.50
2017-11-25T18:46:05.552Z,7.87
